sensor_id;sensor_type;location;lat;lon;timestamp;P1;durP1;ratioP1;P2;durP2;ratioP2
51800;SDS011;37855;53.204;6.568;2023-08-30T00:00:58;15.10;;;11.53;;
51800;SDS011;37855;53.204;6.568;2023-08-30T00:03:23;15.35;;;11.95;;
51800;SDS011;37855;53.204;6.568;2023-08-30T00:05:49;14.03;;;11.40;;
51800;SDS011;37855;53.204;6.568;2023-08-30T00:08:15;14.00;;;10.80;;
51800;SDS011;37855;53.204;6.568;2023-08-30T00:10:44;15.57;;;11.77;;
51800;SDS011;37855;53.204;6.568;2023-08-30T00:13:10;15.23;;;11.75;;
51800;SDS011;37855;53.204;6.568;2023-08-30T00:15:35;15.23;;;11.90;;
51800;SDS011;37855;53.204;6.568;2023-08-30T00:18:01;14.73;;;12.07;;
51800;SDS011;37855;53.204;6.568;2023-08-30T00:20:27;13.77;;;11.03;;
51800;SDS011;37855;53.204;6.568;2023-08-30T00:22:53;14.38;;;11.07;;
51800;SDS011;37855;53.204;6.568;2023-08-30T00:25:19;13.33;;;10.63;;
51800;SDS011;37855;53.204;6.568;2023-08-30T00:27:45;16.42;;;11.63;;
51800;SDS011;37855;53.204;6.568;2023-08-30T00:30:14;16.88;;;11.07;;
51800;SDS011;37855;53.204;6.568;2023-08-30T00:32:40;13.80;;;11.03;;
51800;SDS011;37855;53.204;6.568;2023-08-30T00:35:06;13.88;;;11.35;;
51800;SDS011;37855;53.204;6.568;2023-08-30T00:37:32;15.87;;;11.47;;
51800;SDS011;37855;53.204;6.568;2023-08-30T00:39:57;14.57;;;11.35;;
51800;SDS011;37855;53.204;6.568;2023-08-30T00:42:24;14.38;;;11.75;;
51800;SDS011;37855;53.204;6.568;2023-08-30T00:44:50;14.87;;;10.97;;
51800;SDS011;37855;53.204;6.568;2023-08-30T00:47:16;17.35;;;12.30;;
51800;SDS011;37855;53.204;6.568;2023-08-30T00:49:42;15.00;;;10.97;;
51800;SDS011;37855;53.204;6.568;2023-08-30T00:52:08;14.65;;;11.07;;
51800;SDS011;37855;53.204;6.568;2023-08-30T00:54:35;16.27;;;11.88;;
51800;SDS011;37855;53.204;6.568;2023-08-30T00:57:02;15.63;;;11.30;;
51800;SDS011;37855;53.204;6.568;2023-08-30T00:59:29;14.48;;;10.90;;
51800;SDS011;37855;53.204;6.568;2023-08-30T01:01:57;14.95;;;11.07;;
51800;SDS011;37855;53.204;6.568;2023-08-30T01:04:23;16.33;;;10.45;;
51800;SDS011;37855;53.204;6.568;2023-08-30T01:06:49;14.00;;;11.13;;
51800;SDS011;37855;53.204;6.568;2023-08-30T01:09:15;14.27;;;10.27;;
51800;SDS011;37855;53.204;6.568;2023-08-30T01:11:57;14.32;;;10.27;;
51800;SDS011;37855;53.204;6.568;2023-08-30T01:14:30;13.18;;;10.15;;
51800;SDS011;37855;53.204;6.568;2023-08-30T01:17:04;14.32;;;10.00;;
51800;SDS011;37855;53.204;6.568;2023-08-30T01:19:42;13.20;;;9.43;;
51800;SDS011;37855;53.204;6.568;2023-08-30T01:27:51;13.43;;;9.25;;
51800;SDS011;37855;53.204;6.568;2023-08-30T01:30:18;14.90;;;9.57;;
51800;SDS011;37855;53.204;6.568;2023-08-30T01:32:45;15.68;;;9.38;;
51800;SDS011;37855;53.204;6.568;2023-08-30T01:35:12;15.20;;;9.33;;
51800;SDS011;37855;53.204;6.568;2023-08-30T01:37:43;13.90;;;9.38;;
51800;SDS011;37855;53.204;6.568;2023-08-30T01:40:10;13.88;;;9.50;;
51800;SDS011;37855;53.204;6.568;2023-08-30T01:42:37;15.15;;;9.38;;
51800;SDS011;37855;53.204;6.568;2023-08-30T01:45:04;14.32;;;9.88;;
51800;SDS011;37855;53.204;6.568;2023-08-30T01:47:33;14.50;;;9.17;;
51800;SDS011;37855;53.204;6.568;2023-08-30T01:50:00;14.40;;;9.73;;
51800;SDS011;37855;53.204;6.568;2023-08-30T01:52:29;13.70;;;9.57;;
51800;SDS011;37855;53.204;6.568;2023-08-30T01:54:57;17.38;;;9.90;;
51800;SDS011;37855;53.204;6.568;2023-08-30T01:57:25;12.18;;;9.15;;
51800;SDS011;37855;53.204;6.568;2023-08-30T01:59:51;13.23;;;8.87;;
51800;SDS011;37855;53.204;6.568;2023-08-30T02:02:17;13.10;;;8.90;;
51800;SDS011;37855;53.204;6.568;2023-08-30T02:04:43;12.27;;;9.45;;
51800;SDS011;37855;53.204;6.568;2023-08-30T02:07:14;13.20;;;9.27;;
51800;SDS011;37855;53.204;6.568;2023-08-30T02:09:57;12.80;;;8.85;;
51800;SDS011;37855;53.204;6.568;2023-08-30T02:12:28;14.07;;;9.07;;
51800;SDS011;37855;53.204;6.568;2023-08-30T02:15:00;14.40;;;8.93;;
51800;SDS011;37855;53.204;6.568;2023-08-30T02:17:27;12.57;;;9.00;;
51800;SDS011;37855;53.204;6.568;2023-08-30T02:19:55;14.13;;;8.95;;
51800;SDS011;37855;53.204;6.568;2023-08-30T02:22:21;13.02;;;8.88;;
51800;SDS011;37855;53.204;6.568;2023-08-30T02:24:47;12.88;;;9.25;;
51800;SDS011;37855;53.204;6.568;2023-08-30T02:27:13;15.60;;;8.97;;
51800;SDS011;37855;53.204;6.568;2023-08-30T02:29:39;14.35;;;8.77;;
51800;SDS011;37855;53.204;6.568;2023-08-30T02:32:04;14.17;;;8.77;;
51800;SDS011;37855;53.204;6.568;2023-08-30T02:34:31;11.32;;;8.23;;
51800;SDS011;37855;53.204;6.568;2023-08-30T02:36:57;11.93;;;8.77;;
51800;SDS011;37855;53.204;6.568;2023-08-30T02:39:22;13.23;;;8.93;;
51800;SDS011;37855;53.204;6.568;2023-08-30T02:41:48;12.17;;;8.63;;
51800;SDS011;37855;53.204;6.568;2023-08-30T02:44:14;13.90;;;9.27;;
51800;SDS011;37855;53.204;6.568;2023-08-30T02:46:39;12.00;;;8.77;;
51800;SDS011;37855;53.204;6.568;2023-08-30T02:49:06;13.75;;;8.82;;
51800;SDS011;37855;53.204;6.568;2023-08-30T02:51:32;13.88;;;8.70;;
51800;SDS011;37855;53.204;6.568;2023-08-30T02:53:58;12.60;;;8.87;;
51800;SDS011;37855;53.204;6.568;2023-08-30T02:56:24;13.27;;;9.07;;
51800;SDS011;37855;53.204;6.568;2023-08-30T02:58:50;12.70;;;8.90;;
51800;SDS011;37855;53.204;6.568;2023-08-30T03:01:16;13.23;;;9.07;;
51800;SDS011;37855;53.204;6.568;2023-08-30T03:03:41;14.00;;;9.10;;
51800;SDS011;37855;53.204;6.568;2023-08-30T03:06:07;12.68;;;8.57;;
51800;SDS011;37855;53.204;6.568;2023-08-30T03:08:33;13.80;;;8.70;;
51800;SDS011;37855;53.204;6.568;2023-08-30T03:11:11;12.73;;;9.35;;
51800;SDS011;37855;53.204;6.568;2023-08-30T03:13:38;11.95;;;8.07;;
51800;SDS011;37855;53.204;6.568;2023-08-30T03:16:10;13.67;;;8.53;;
51800;SDS011;37855;53.204;6.568;2023-08-30T03:18:37;12.63;;;8.80;;
51800;SDS011;37855;53.204;6.568;2023-08-30T03:21:03;14.60;;;9.55;;
51800;SDS011;37855;53.204;6.568;2023-08-30T03:23:29;13.43;;;9.00;;
51800;SDS011;37855;53.204;6.568;2023-08-30T03:25:56;11.43;;;8.47;;
51800;SDS011;37855;53.204;6.568;2023-08-30T03:28:22;13.85;;;9.40;;
51800;SDS011;37855;53.204;6.568;2023-08-30T03:30:48;13.73;;;9.50;;
51800;SDS011;37855;53.204;6.568;2023-08-30T03:33:14;14.97;;;9.47;;
51800;SDS011;37855;53.204;6.568;2023-08-30T03:35:40;14.80;;;9.60;;
51800;SDS011;37855;53.204;6.568;2023-08-30T03:38:05;15.60;;;9.67;;
51800;SDS011;37855;53.204;6.568;2023-08-30T03:40:31;15.00;;;10.18;;
51800;SDS011;37855;53.204;6.568;2023-08-30T03:42:57;13.65;;;9.45;;
51800;SDS011;37855;53.204;6.568;2023-08-30T03:45:23;14.20;;;9.70;;
51800;SDS011;37855;53.204;6.568;2023-08-30T03:47:49;13.93;;;9.40;;
51800;SDS011;37855;53.204;6.568;2023-08-30T03:50:15;15.63;;;9.17;;
51800;SDS011;37855;53.204;6.568;2023-08-30T03:52:40;14.38;;;9.60;;
51800;SDS011;37855;53.204;6.568;2023-08-30T03:55:06;15.68;;;9.57;;
51800;SDS011;37855;53.204;6.568;2023-08-30T03:57:32;14.27;;;9.67;;
51800;SDS011;37855;53.204;6.568;2023-08-30T03:59:58;14.98;;;9.70;;
51800;SDS011;37855;53.204;6.568;2023-08-30T04:02:23;15.47;;;10.17;;
51800;SDS011;37855;53.204;6.568;2023-08-30T04:04:49;16.20;;;9.63;;
51800;SDS011;37855;53.204;6.568;2023-08-30T04:07:15;14.30;;;9.03;;
51800;SDS011;37855;53.204;6.568;2023-08-30T04:09:41;15.00;;;9.45;;
51800;SDS011;37855;53.204;6.568;2023-08-30T04:12:06;14.05;;;10.20;;
51800;SDS011;37855;53.204;6.568;2023-08-30T04:14:32;15.87;;;9.33;;
51800;SDS011;37855;53.204;6.568;2023-08-30T04:16:58;14.73;;;9.52;;
51800;SDS011;37855;53.204;6.568;2023-08-30T04:19:23;15.37;;;9.60;;
51800;SDS011;37855;53.204;6.568;2023-08-30T04:21:49;13.57;;;9.35;;
51800;SDS011;37855;53.204;6.568;2023-08-30T04:24:15;13.13;;;9.47;;
51800;SDS011;37855;53.204;6.568;2023-08-30T04:26:42;14.63;;;9.43;;
51800;SDS011;37855;53.204;6.568;2023-08-30T04:29:07;15.10;;;9.70;;
51800;SDS011;37855;53.204;6.568;2023-08-30T04:31:33;15.40;;;8.70;;
51800;SDS011;37855;53.204;6.568;2023-08-30T04:33:59;15.60;;;9.73;;
51800;SDS011;37855;53.204;6.568;2023-08-30T04:36:25;14.37;;;9.07;;
51800;SDS011;37855;53.204;6.568;2023-08-30T04:38:50;14.40;;;9.30;;
51800;SDS011;37855;53.204;6.568;2023-08-30T04:41:16;14.87;;;8.80;;
51800;SDS011;37855;53.204;6.568;2023-08-30T04:43:42;12.90;;;9.10;;
51800;SDS011;37855;53.204;6.568;2023-08-30T04:46:08;12.73;;;8.18;;
51800;SDS011;37855;53.204;6.568;2023-08-30T04:48:34;12.95;;;8.60;;
51800;SDS011;37855;53.204;6.568;2023-08-30T04:51:03;14.10;;;8.70;;
51800;SDS011;37855;53.204;6.568;2023-08-30T04:53:29;14.07;;;8.85;;
51800;SDS011;37855;53.204;6.568;2023-08-30T04:55:55;13.35;;;8.40;;
51800;SDS011;37855;53.204;6.568;2023-08-30T04:58:21;11.53;;;8.37;;
51800;SDS011;37855;53.204;6.568;2023-08-30T05:00:47;13.10;;;8.38;;
51800;SDS011;37855;53.204;6.568;2023-08-30T05:03:13;13.93;;;8.95;;
51800;SDS011;37855;53.204;6.568;2023-08-30T05:05:38;15.23;;;8.57;;
51800;SDS011;37855;53.204;6.568;2023-08-30T05:08:04;12.55;;;8.63;;
51800;SDS011;37855;53.204;6.568;2023-08-30T05:10:30;13.00;;;8.50;;
51800;SDS011;37855;53.204;6.568;2023-08-30T05:12:57;13.60;;;8.27;;
51800;SDS011;37855;53.204;6.568;2023-08-30T05:15:22;12.85;;;9.00;;
51800;SDS011;37855;53.204;6.568;2023-08-30T05:17:48;11.63;;;7.93;;
51800;SDS011;37855;53.204;6.568;2023-08-30T05:20:14;12.10;;;8.07;;
51800;SDS011;37855;53.204;6.568;2023-08-30T05:22:39;16.02;;;8.15;;
51800;SDS011;37855;53.204;6.568;2023-08-30T05:25:05;15.37;;;8.93;;
51800;SDS011;37855;53.204;6.568;2023-08-30T05:27:31;13.30;;;8.60;;
51800;SDS011;37855;53.204;6.568;2023-08-30T05:29:57;14.68;;;8.20;;
51800;SDS011;37855;53.204;6.568;2023-08-30T05:32:22;13.13;;;8.23;;
51800;SDS011;37855;53.204;6.568;2023-08-30T05:34:51;12.55;;;8.32;;
51800;SDS011;37855;53.204;6.568;2023-08-30T05:37:17;12.57;;;7.82;;
51800;SDS011;37855;53.204;6.568;2023-08-30T05:39:45;13.33;;;8.33;;
51800;SDS011;37855;53.204;6.568;2023-08-30T05:42:11;18.98;;;8.60;;
51800;SDS011;37855;53.204;6.568;2023-08-30T05:44:37;13.98;;;8.30;;
51800;SDS011;37855;53.204;6.568;2023-08-30T05:47:03;12.83;;;7.90;;
51800;SDS011;37855;53.204;6.568;2023-08-30T05:49:29;14.38;;;8.07;;
51800;SDS011;37855;53.204;6.568;2023-08-30T05:51:54;12.03;;;8.17;;
51800;SDS011;37855;53.204;6.568;2023-08-30T05:54:20;14.75;;;8.05;;
51800;SDS011;37855;53.204;6.568;2023-08-30T05:56:46;13.40;;;8.63;;
51800;SDS011;37855;53.204;6.568;2023-08-30T05:59:11;12.27;;;9.07;;
51800;SDS011;37855;53.204;6.568;2023-08-30T06:01:37;12.40;;;8.37;;
51800;SDS011;37855;53.204;6.568;2023-08-30T06:04:03;12.95;;;8.82;;
51800;SDS011;37855;53.204;6.568;2023-08-30T06:06:29;12.20;;;8.00;;
51800;SDS011;37855;53.204;6.568;2023-08-30T06:08:55;15.25;;;8.52;;
51800;SDS011;37855;53.204;6.568;2023-08-30T06:11:21;14.95;;;8.93;;
51800;SDS011;37855;53.204;6.568;2023-08-30T06:13:46;12.47;;;8.70;;
51800;SDS011;37855;53.204;6.568;2023-08-30T06:16:12;14.52;;;9.13;;
51800;SDS011;37855;53.204;6.568;2023-08-30T06:18:37;12.70;;;7.97;;
51800;SDS011;37855;53.204;6.568;2023-08-30T06:21:06;14.75;;;8.50;;
51800;SDS011;37855;53.204;6.568;2023-08-30T06:23:32;14.20;;;8.57;;
51800;SDS011;37855;53.204;6.568;2023-08-30T06:25:59;13.02;;;8.15;;
51800;SDS011;37855;53.204;6.568;2023-08-30T06:28:25;15.02;;;8.23;;
51800;SDS011;37855;53.204;6.568;2023-08-30T06:30:51;14.97;;;9.00;;
51800;SDS011;37855;53.204;6.568;2023-08-30T06:33:17;13.48;;;8.27;;
51800;SDS011;37855;53.204;6.568;2023-08-30T06:35:42;12.87;;;8.10;;
51800;SDS011;37855;53.204;6.568;2023-08-30T06:38:08;12.85;;;8.45;;
51800;SDS011;37855;53.204;6.568;2023-08-30T06:40:34;15.33;;;8.73;;
51800;SDS011;37855;53.204;6.568;2023-08-30T06:43:02;14.48;;;8.18;;
51800;SDS011;37855;53.204;6.568;2023-08-30T06:45:28;13.95;;;8.18;;
51800;SDS011;37855;53.204;6.568;2023-08-30T06:47:54;14.40;;;7.97;;
51800;SDS011;37855;53.204;6.568;2023-08-30T06:50:19;17.33;;;8.63;;
51800;SDS011;37855;53.204;6.568;2023-08-30T06:52:45;15.73;;;8.33;;
51800;SDS011;37855;53.204;6.568;2023-08-30T06:55:11;17.70;;;8.23;;
51800;SDS011;37855;53.204;6.568;2023-08-30T06:57:36;12.87;;;7.83;;
51800;SDS011;37855;53.204;6.568;2023-08-30T07:00:02;13.20;;;8.23;;
51800;SDS011;37855;53.204;6.568;2023-08-30T07:02:36;19.40;;;7.40;;
51800;SDS011;37855;53.204;6.568;2023-08-30T07:05:03;12.25;;;7.60;;
51800;SDS011;37855;53.204;6.568;2023-08-30T07:07:30;14.70;;;7.95;;
51800;SDS011;37855;53.204;6.568;2023-08-30T07:09:56;14.10;;;7.82;;
51800;SDS011;37855;53.204;6.568;2023-08-30T07:12:22;14.30;;;7.73;;
51800;SDS011;37855;53.204;6.568;2023-08-30T07:14:48;14.75;;;7.78;;
51800;SDS011;37855;53.204;6.568;2023-08-30T07:17:13;14.60;;;7.43;;
51800;SDS011;37855;53.204;6.568;2023-08-30T07:19:39;12.67;;;7.70;;
51800;SDS011;37855;53.204;6.568;2023-08-30T07:22:05;12.90;;;7.20;;
51800;SDS011;37855;53.204;6.568;2023-08-30T07:24:30;14.50;;;7.78;;
51800;SDS011;37855;53.204;6.568;2023-08-30T07:26:56;13.37;;;7.23;;
51800;SDS011;37855;53.204;6.568;2023-08-30T07:29:22;15.25;;;7.55;;
51800;SDS011;37855;53.204;6.568;2023-08-30T07:31:47;14.47;;;7.70;;
51800;SDS011;37855;53.204;6.568;2023-08-30T07:34:16;15.13;;;7.10;;
51800;SDS011;37855;53.204;6.568;2023-08-30T07:36:42;12.40;;;6.95;;
51800;SDS011;37855;53.204;6.568;2023-08-30T07:39:07;11.73;;;7.00;;
51800;SDS011;37855;53.204;6.568;2023-08-30T07:41:33;13.10;;;7.20;;
51800;SDS011;37855;53.204;6.568;2023-08-30T07:43:59;10.48;;;6.32;;
51800;SDS011;37855;53.204;6.568;2023-08-30T07:46:25;13.48;;;7.13;;
51800;SDS011;37855;53.204;6.568;2023-08-30T07:48:51;12.30;;;6.70;;
51800;SDS011;37855;53.204;6.568;2023-08-30T07:51:17;13.05;;;6.78;;
51800;SDS011;37855;53.204;6.568;2023-08-30T07:53:42;13.20;;;6.70;;
51800;SDS011;37855;53.204;6.568;2023-08-30T07:56:08;14.43;;;7.40;;
51800;SDS011;37855;53.204;6.568;2023-08-30T07:58:34;10.80;;;6.63;;
51800;SDS011;37855;53.204;6.568;2023-08-30T08:00:59;13.10;;;6.85;;
51800;SDS011;37855;53.204;6.568;2023-08-30T08:03:25;12.63;;;6.87;;
51800;SDS011;37855;53.204;6.568;2023-08-30T08:05:51;12.55;;;6.68;;
51800;SDS011;37855;53.204;6.568;2023-08-30T08:08:16;13.63;;;6.10;;
51800;SDS011;37855;53.204;6.568;2023-08-30T08:10:44;13.57;;;7.20;;
51800;SDS011;37855;53.204;6.568;2023-08-30T08:13:10;13.30;;;6.47;;
51800;SDS011;37855;53.204;6.568;2023-08-30T08:15:37;13.07;;;6.40;;
51800;SDS011;37855;53.204;6.568;2023-08-30T08:18:03;15.23;;;7.35;;
51800;SDS011;37855;53.204;6.568;2023-08-30T08:20:29;18.33;;;7.13;;
51800;SDS011;37855;53.204;6.568;2023-08-30T08:22:55;15.23;;;7.18;;
51800;SDS011;37855;53.204;6.568;2023-08-30T08:25:21;19.03;;;7.27;;
51800;SDS011;37855;53.204;6.568;2023-08-30T08:27:49;13.07;;;7.45;;
51800;SDS011;37855;53.204;6.568;2023-08-30T08:30:16;16.52;;;7.50;;
51800;SDS011;37855;53.204;6.568;2023-08-30T08:32:41;14.57;;;7.53;;
51800;SDS011;37855;53.204;6.568;2023-08-30T08:35:07;16.75;;;7.70;;
51800;SDS011;37855;53.204;6.568;2023-08-30T08:37:33;14.77;;;7.57;;
51800;SDS011;37855;53.204;6.568;2023-08-30T08:39:59;13.27;;;7.10;;
51800;SDS011;37855;53.204;6.568;2023-08-30T08:42:25;12.85;;;7.78;;
51800;SDS011;37855;53.204;6.568;2023-08-30T08:44:53;16.33;;;7.75;;
51800;SDS011;37855;53.204;6.568;2023-08-30T08:47:19;15.20;;;7.67;;
51800;SDS011;37855;53.204;6.568;2023-08-30T08:49:46;13.43;;;7.97;;
51800;SDS011;37855;53.204;6.568;2023-08-30T08:52:16;12.57;;;7.22;;
51800;SDS011;37855;53.204;6.568;2023-08-30T08:54:42;12.60;;;7.30;;
51800;SDS011;37855;53.204;6.568;2023-08-30T08:57:08;13.90;;;7.60;;
51800;SDS011;37855;53.204;6.568;2023-08-30T08:59:34;14.63;;;7.13;;
51800;SDS011;37855;53.204;6.568;2023-08-30T09:02:00;15.63;;;6.95;;
51800;SDS011;37855;53.204;6.568;2023-08-30T09:04:27;13.27;;;7.25;;
51800;SDS011;37855;53.204;6.568;2023-08-30T09:06:55;16.35;;;6.97;;
51800;SDS011;37855;53.204;6.568;2023-08-30T09:09:21;11.67;;;6.47;;
51800;SDS011;37855;53.204;6.568;2023-08-30T09:11:48;15.45;;;7.00;;
51800;SDS011;37855;53.204;6.568;2023-08-30T09:14:13;14.13;;;7.47;;
51800;SDS011;37855;53.204;6.568;2023-08-30T09:16:40;13.45;;;7.20;;
51800;SDS011;37855;53.204;6.568;2023-08-30T09:19:05;12.87;;;7.07;;
51800;SDS011;37855;53.204;6.568;2023-08-30T09:21:32;11.25;;;7.00;;
51800;SDS011;37855;53.204;6.568;2023-08-30T09:24:02;13.43;;;7.30;;
51800;SDS011;37855;53.204;6.568;2023-08-30T09:26:29;11.73;;;6.80;;
51800;SDS011;37855;53.204;6.568;2023-08-30T09:29:03;12.45;;;7.03;;
51800;SDS011;37855;53.204;6.568;2023-08-30T09:31:50;12.55;;;6.63;;
51800;SDS011;37855;53.204;6.568;2023-08-30T09:34:21;13.60;;;6.25;;
51800;SDS011;37855;53.204;6.568;2023-08-30T09:36:50;11.93;;;6.17;;
51800;SDS011;37855;53.204;6.568;2023-08-30T09:39:16;14.35;;;6.53;;
51800;SDS011;37855;53.204;6.568;2023-08-30T09:41:48;13.25;;;6.45;;
51800;SDS011;37855;53.204;6.568;2023-08-30T09:44:15;13.07;;;5.78;;
51800;SDS011;37855;53.204;6.568;2023-08-30T09:46:46;12.43;;;6.07;;
51800;SDS011;37855;53.204;6.568;2023-08-30T09:49:20;12.43;;;6.30;;
51800;SDS011;37855;53.204;6.568;2023-08-30T09:51:47;12.27;;;6.25;;
51800;SDS011;37855;53.204;6.568;2023-08-30T09:54:15;12.32;;;5.95;;
51800;SDS011;37855;53.204;6.568;2023-08-30T09:56:44;12.20;;;6.22;;
51800;SDS011;37855;53.204;6.568;2023-08-30T09:59:11;10.80;;;5.75;;
51800;SDS011;37855;53.204;6.568;2023-08-30T10:01:38;12.60;;;6.40;;
51800;SDS011;37855;53.204;6.568;2023-08-30T10:04:06;14.77;;;6.53;;
51800;SDS011;37855;53.204;6.568;2023-08-30T10:06:34;14.93;;;6.78;;
51800;SDS011;37855;53.204;6.568;2023-08-30T10:09:02;15.40;;;6.28;;
51800;SDS011;37855;53.204;6.568;2023-08-30T10:11:31;14.90;;;6.68;;
51800;SDS011;37855;53.204;6.568;2023-08-30T10:13:59;11.20;;;6.80;;
51800;SDS011;37855;53.204;6.568;2023-08-30T10:16:26;12.68;;;6.50;;
51800;SDS011;37855;53.204;6.568;2023-08-30T10:18:59;10.95;;;5.78;;
51800;SDS011;37855;53.204;6.568;2023-08-30T10:21:29;12.68;;;6.40;;
51800;SDS011;37855;53.204;6.568;2023-08-30T10:23:58;11.50;;;6.60;;
51800;SDS011;37855;53.204;6.568;2023-08-30T10:26:25;14.17;;;6.70;;
51800;SDS011;37855;53.204;6.568;2023-08-30T10:28:53;16.10;;;6.55;;
51800;SDS011;37855;53.204;6.568;2023-08-30T10:31:21;14.43;;;6.95;;
51800;SDS011;37855;53.204;6.568;2023-08-30T10:33:48;11.47;;;5.93;;
51800;SDS011;37855;53.204;6.568;2023-08-30T10:36:20;12.43;;;6.80;;
51800;SDS011;37855;53.204;6.568;2023-08-30T10:38:49;10.77;;;6.38;;
51800;SDS011;37855;53.204;6.568;2023-08-30T10:41:20;12.80;;;6.65;;
51800;SDS011;37855;53.204;6.568;2023-08-30T10:43:49;12.25;;;6.72;;
51800;SDS011;37855;53.204;6.568;2023-08-30T10:46:31;13.00;;;6.50;;
51800;SDS011;37855;53.204;6.568;2023-08-30T10:49:11;13.60;;;7.25;;
51800;SDS011;37855;53.204;6.568;2023-08-30T10:51:40;13.90;;;6.63;;
51800;SDS011;37855;53.204;6.568;2023-08-30T10:54:18;12.52;;;6.15;;
51800;SDS011;37855;53.204;6.568;2023-08-30T10:56:45;10.73;;;6.10;;
51800;SDS011;37855;53.204;6.568;2023-08-30T10:59:26;9.83;;;5.47;;
51800;SDS011;37855;53.204;6.568;2023-08-30T11:01:52;9.68;;;5.70;;
51800;SDS011;37855;53.204;6.568;2023-08-30T11:04:19;11.90;;;5.88;;
51800;SDS011;37855;53.204;6.568;2023-08-30T11:06:47;9.80;;;4.68;;
51800;SDS011;37855;53.204;6.568;2023-08-30T11:09:14;10.05;;;5.15;;
51800;SDS011;37855;53.204;6.568;2023-08-30T11:11:47;10.30;;;5.23;;
51800;SDS011;37855;53.204;6.568;2023-08-30T11:14:15;8.75;;;4.80;;
51800;SDS011;37855;53.204;6.568;2023-08-30T11:16:41;11.50;;;4.40;;
51800;SDS011;37855;53.204;6.568;2023-08-30T11:19:08;9.35;;;4.30;;
51800;SDS011;37855;53.204;6.568;2023-08-30T11:21:36;8.03;;;3.60;;
51800;SDS011;37855;53.204;6.568;2023-08-30T11:24:06;8.02;;;4.13;;
51800;SDS011;37855;53.204;6.568;2023-08-30T11:26:35;11.55;;;4.63;;
51800;SDS011;37855;53.204;6.568;2023-08-30T11:29:08;9.10;;;4.88;;
51800;SDS011;37855;53.204;6.568;2023-08-30T11:31:35;9.77;;;5.32;;
51800;SDS011;37855;53.204;6.568;2023-08-30T11:34:01;9.10;;;4.87;;
51800;SDS011;37855;53.204;6.568;2023-08-30T11:36:28;9.68;;;4.70;;
51800;SDS011;37855;53.204;6.568;2023-08-30T11:38:55;9.00;;;4.45;;
51800;SDS011;37855;53.204;6.568;2023-08-30T11:41:22;9.93;;;4.40;;
51800;SDS011;37855;53.204;6.568;2023-08-30T11:43:51;9.63;;;4.25;;
51800;SDS011;37855;53.204;6.568;2023-08-30T11:46:18;9.03;;;4.07;;
51800;SDS011;37855;53.204;6.568;2023-08-30T11:48:47;8.65;;;4.00;;
51800;SDS011;37855;53.204;6.568;2023-08-30T11:51:15;7.57;;;4.18;;
51800;SDS011;37855;53.204;6.568;2023-08-30T11:53:42;6.70;;;3.28;;
51800;SDS011;37855;53.204;6.568;2023-08-30T11:56:08;7.80;;;3.63;;
51800;SDS011;37855;53.204;6.568;2023-08-30T11:58:35;6.50;;;2.93;;
51800;SDS011;37855;53.204;6.568;2023-08-30T12:01:02;6.38;;;2.90;;
51800;SDS011;37855;53.204;6.568;2023-08-30T12:03:29;7.40;;;2.95;;
51800;SDS011;37855;53.204;6.568;2023-08-30T12:05:55;7.40;;;3.28;;
51800;SDS011;37855;53.204;6.568;2023-08-30T12:08:23;6.43;;;3.30;;
51800;SDS011;37855;53.204;6.568;2023-08-30T12:10:53;7.60;;;3.60;;
51800;SDS011;37855;53.204;6.568;2023-08-30T12:13:30;8.13;;;3.70;;
51800;SDS011;37855;53.204;6.568;2023-08-30T12:15:58;6.38;;;3.30;;
51800;SDS011;37855;53.204;6.568;2023-08-30T12:18:25;6.72;;;3.58;;
51800;SDS011;37855;53.204;6.568;2023-08-30T12:20:57;6.55;;;3.60;;
51800;SDS011;37855;53.204;6.568;2023-08-30T12:23:31;7.40;;;3.63;;
51800;SDS011;37855;53.204;6.568;2023-08-30T12:26:05;9.20;;;3.40;;
51800;SDS011;37855;53.204;6.568;2023-08-30T12:28:32;8.00;;;4.68;;
51800;SDS011;37855;53.204;6.568;2023-08-30T12:31:00;7.07;;;3.80;;
51800;SDS011;37855;53.204;6.568;2023-08-30T12:33:26;6.35;;;3.60;;
51800;SDS011;37855;53.204;6.568;2023-08-30T12:35:53;7.57;;;3.93;;
51800;SDS011;37855;53.204;6.568;2023-08-30T12:38:20;11.50;;;5.32;;
51800;SDS011;37855;53.204;6.568;2023-08-30T12:40:46;8.13;;;4.63;;
51800;SDS011;37855;53.204;6.568;2023-08-30T12:43:14;8.55;;;5.00;;
51800;SDS011;37855;53.204;6.568;2023-08-30T12:45:40;9.02;;;5.13;;
51800;SDS011;37855;53.204;6.568;2023-08-30T12:48:07;9.80;;;6.13;;
51800;SDS011;37855;53.204;6.568;2023-08-30T12:50:38;9.40;;;5.95;;
51800;SDS011;37855;53.204;6.568;2023-08-30T12:53:04;9.98;;;5.20;;
51800;SDS011;37855;53.204;6.568;2023-08-30T12:55:31;9.75;;;5.53;;
51800;SDS011;37855;53.204;6.568;2023-08-30T12:57:57;9.43;;;6.10;;
51800;SDS011;37855;53.204;6.568;2023-08-30T13:00:23;10.20;;;5.67;;
51800;SDS011;37855;53.204;6.568;2023-08-30T13:02:49;9.73;;;6.18;;
51800;SDS011;37855;53.204;6.568;2023-08-30T13:05:15;8.38;;;5.35;;
51800;SDS011;37855;53.204;6.568;2023-08-30T13:07:41;9.65;;;5.93;;
51800;SDS011;37855;53.204;6.568;2023-08-30T13:10:07;10.00;;;5.80;;
51800;SDS011;37855;53.204;6.568;2023-08-30T13:12:33;9.07;;;5.07;;
51800;SDS011;37855;53.204;6.568;2023-08-30T13:14:59;9.10;;;5.60;;
51800;SDS011;37855;53.204;6.568;2023-08-30T13:17:24;10.60;;;4.20;;
51800;SDS011;37855;53.204;6.568;2023-08-30T13:19:50;10.38;;;6.28;;
51800;SDS011;37855;53.204;6.568;2023-08-30T13:22:16;9.90;;;6.43;;
51800;SDS011;37855;53.204;6.568;2023-08-30T13:24:43;8.85;;;5.47;;
51800;SDS011;37855;53.204;6.568;2023-08-30T13:27:09;8.70;;;4.85;;
51800;SDS011;37855;53.204;6.568;2023-08-30T13:29:35;11.10;;;5.03;;
51800;SDS011;37855;53.204;6.568;2023-08-30T13:32:01;8.27;;;5.13;;
51800;SDS011;37855;53.204;6.568;2023-08-30T13:34:27;7.65;;;4.47;;
51800;SDS011;37855;53.204;6.568;2023-08-30T13:36:52;8.97;;;5.10;;
51800;SDS011;37855;53.204;6.568;2023-08-30T13:39:18;13.48;;;5.72;;
51800;SDS011;37855;53.204;6.568;2023-08-30T13:41:45;8.10;;;4.53;;
51800;SDS011;37855;53.204;6.568;2023-08-30T13:44:14;9.67;;;5.43;;
51800;SDS011;37855;53.204;6.568;2023-08-30T13:46:40;7.93;;;4.80;;
51800;SDS011;37855;53.204;6.568;2023-08-30T13:49:06;8.70;;;5.05;;
51800;SDS011;37855;53.204;6.568;2023-08-30T13:51:32;8.73;;;5.38;;
51800;SDS011;37855;53.204;6.568;2023-08-30T13:53:58;9.43;;;5.87;;
51800;SDS011;37855;53.204;6.568;2023-08-30T13:56:23;8.77;;;5.03;;
51800;SDS011;37855;53.204;6.568;2023-08-30T13:58:49;10.07;;;5.23;;
51800;SDS011;37855;53.204;6.568;2023-08-30T14:01:15;7.95;;;4.20;;
51800;SDS011;37855;53.204;6.568;2023-08-30T14:03:41;9.57;;;6.03;;
51800;SDS011;37855;53.204;6.568;2023-08-30T14:06:10;9.55;;;6.20;;
51800;SDS011;37855;53.204;6.568;2023-08-30T14:08:36;10.03;;;6.30;;
51800;SDS011;37855;53.204;6.568;2023-08-30T14:11:02;9.07;;;6.30;;
51800;SDS011;37855;53.204;6.568;2023-08-30T14:13:28;9.70;;;6.07;;
51800;SDS011;37855;53.204;6.568;2023-08-30T14:15:58;8.93;;;6.37;;
51800;SDS011;37855;53.204;6.568;2023-08-30T14:18:25;9.88;;;6.57;;
51800;SDS011;37855;53.204;6.568;2023-08-30T14:20:51;10.55;;;6.53;;
51800;SDS011;37855;53.204;6.568;2023-08-30T14:23:27;11.15;;;7.10;;
51800;SDS011;37855;53.204;6.568;2023-08-30T14:25:57;11.82;;;6.82;;
51800;SDS011;37855;53.204;6.568;2023-08-30T14:28:33;11.57;;;6.50;;
51800;SDS011;37855;53.204;6.568;2023-08-30T14:31:00;11.20;;;6.53;;
51800;SDS011;37855;53.204;6.568;2023-08-30T14:33:34;10.48;;;6.63;;
51800;SDS011;37855;53.204;6.568;2023-08-30T14:36:01;10.80;;;6.80;;
51800;SDS011;37855;53.204;6.568;2023-08-30T14:38:28;9.75;;;6.82;;
51800;SDS011;37855;53.204;6.568;2023-08-30T14:40:58;11.37;;;6.90;;